Hlavní strana
METAR-TAF:

METAR-TAF

Letiště :

Eastman, Georgie, Spojené státy americké

zeměpisná šířka: 32-12-59N, zeměpisná délka: 083-07-43W, výška: 93 m

Aktuální stav počasí

Zpráva byla vytvořena před 27 minutami, v 01:55 UTC
Jihojihozápadní vítr 5 kt
Teplota 17°C
Vlhkost vzduchu 82%
Tlak 1022 hPa
Viditelnost: 16.1 km
Oblačno až skoro zataženo ve výšce 6000 ft
Oblačno až skoro zataženo ve výšce 10000 ft

METAR: KEZM 190155Z AUTO 21005KT 10SM BKN060 BKN100 17/14 A3018 RMK AO2 T01660137

Čas: 21:22 (02:22 UTC)


TAF: chybějící

Stav a předpovědi počasí z více než 4 000 letišť (zprávy METAR a TAF).

Červené a žluté tečky na mapě představují dostupné meteorologické stanice.

Když kurzor umístíte na tečku, zobrazí se název stanice.

Pak kliknutím zobrazíte stav a předpověď počasí.

Chcete-li změnit mapu, kliknutím na zelené tlačítko se znaménkem +mapu přiblížíte, kliknutím na zelené tlačítko se znaménkem – mapu oddálíte a kliknutím na zelené šipky přejdete na sousední mapy.


METAR-TAF: